Date,TemperatureHighF,TemperatureAvgF,TemperatureLowF,DewpointHighF,DewpointAvgF,DewpointLowF,HumidityHigh,HumidityAvg,HumidityLow,PressureMaxIn,PressureMinIn,WindSpeedMaxMPH,WindSpeedAvgMPH,GustSpeedMaxMPH,PrecipitationSumIn
2012-1-1,52.3,49.2,37.6,30.6,28.1,26.3,75,44,39,30.24,29.97,26,8,26,0.04
2012-1-2,55.9,47.0,39.8,43.4,33.8,26.3,87,61,40,30.20,29.84,18,2,18,0.09
2012-1-3,52.6,47.1,41.4,40.9,38.9,36.1,92,74,61,30.24,30.09,15,2,15,0.00
2012-1-4,61.4,49.4,42.9,47.0,40.3,0.0,95,74,29,30.15,29.98,20,2,20,0.59
2012-1-5,45.6,39.8,33.7,41.3,35.6,29.4,94,85,71,30.35,30.13,25,2,26,0.32
2012-1-6,41.3,35.5,32.4,32.7,30.2,27.2,95,81,64,30.33,30.22,11,2,11,0.02
2012-1-7,45.3,39.1,33.8,38.5,34.7,31.1,93,84,70,30.41,30.28,9,1,9,0.00
2012-1-8,54.7,42.7,32.9,44.8,37.4,30.8,95,82,64,30.34,30.19,12,1,12,0.00
2012-1-9,50.2,44.5,37.6,43.7,39.7,34.7,95,84,65,30.24,30.15,12,1,12,0.22
2012-1-10,40.9,34.2,25.1,35.3,31.4,23.9,96,90,74,30.46,30.23,9,0,9,0.01
2012-1-11,39.6,28.7,23.1,31.0,25.5,21.1,95,88,66,30.47,30.32,5,0,5,0.00
2012-1-12,43.7,30.9,22.8,30.2,25.0,20.5,93,80,43,30.36,30.23,6,0,6,0.01
2012-1-13,40.9,31.2,21.2,30.5,26.1,19.2,94,82,61,30.28,29.99,4,0,5,0.00
2012-1-14,40.0,33.7,29.8,37.5,30.1,25.8,94,87,75,30.00,29.83,21,2,21,0.19
2012-1-15,32.9,29.8,23.1,30.1,27.2,21.8,96,90,81,30.07,29.92,10,0,10,0.00
2012-1-16,33.9,29.6,21.6,30.3,26.2,20.0,96,87,75,30.08,29.92,12,1,12,0.00
2012-1-17,34.5,32.0,29.1,31.6,29.2,25.1,95,89,80,29.93,29.77,13,2,13,0.18
2012-1-18,31.9,29.6,27.7,30.3,27.9,25.3,95,94,86,29.92,29.54,8,0,8,0.04
2012-1-19,31.8,29.6,28.4,29.8,28.1,26.9,95,94,91,29.73,29.50,2,0,2,0.00
2012-1-20,53.2,41.2,31.0,42.6,36.5,29.7,97,84,67,29.72,29.01,19,3,19,0.36
2012-1-21,49.4,39.8,36.1,43.2,35.6,30.3,92,85,75,29.86,29.00,24,4,27,0.21
2012-1-22,50.2,40.6,33.5,38.9,32.4,26.6,92,73,55,29.84,29.38,33,4,33,0.11
2012-1-23,48.2,39.5,35.1,34.4,30.9,27.6,87,72,49,30.00,29.78,12,2,12,0.00
2012-1-24,54.6,43.9,36.9,47.8,37.2,26.1,92,77,57,29.96,29.62,29,4,30,0.34
2012-1-25,49.4,43.1,38.3,40.5,37.2,32.3,95,80,67,30.24,29.90,19,3,20,0.23
2012-1-26,49.4,39.7,29.8,43.0,33.1,27.3,91,78,53,30.55,29.90,18,3,18,0.17
2012-1-27,43.5,33.6,26.2,30.0,26.7,22.7,92,76,56,30.59,30.44,8,1,8,0.00
2012-1-28,46.0,39.6,33.2,38.3,30.1,23.8,82,69,54,30.45,30.05,10,1,10,0.00
2012-1-29,57.7,46.5,42.2,47.2,42.7,35.5,96,88,47,30.05,29.75,14,1,15,1.52
2012-1-30,48.2,43.3,39.1,41.6,39.3,35.6,95,86,73,30.04,29.80,15,2,15,0.36
2012-1-31,51.1,43.1,38.6,39.5,37.5,35.8,91,81,58,30.04,29.83,9,1,9,0.06
2012-2-1,46.0,41.5,36.4,40.8,38.0,32.9,95,87,78,30.41,29.80,15,2,16,0.39
2012-2-2,49.1,39.7,34.3,37.7,33.2,24.9,93,78,43,30.43,30.18,15,2,15,0.00
2012-2-3,56.0,47.9,33.3,32.6,23.2,16.2,94,41,28,30.19,30.00,36,10,36,0.00
2012-2-4,58.7,49.5,44.8,27.9,24.9,23.0,47,39,29,30.12,30.04,28,8,29,0.00
2012-2-5,58.7,49.5,43.2,36.7,27.8,23.3,60,43,33,30.16,30.05,21,2,21,0.00
2012-2-6,58.2,50.2,39.5,26.1,22.2,18.8,57,34,23,30.05,29.81,43,13,43,0.00
2012-2-7,57.1,50.8,45.6,32.6,23.4,21.2,60,35,26,29.95,29.77,32,13,45,0.00
2012-2-8,48.6,45.6,42.9,43.4,38.5,32.4,88,76,61,30.21,29.96,13,3,20,0.07
2012-2-9,53.4,49.3,46.1,46.4,41.8,35.4,88,75,51,30.22,29.96,14,3,14,0.06
2012-2-10,56.9,50.0,44.0,45.6,41.4,36.1,94,73,53,30.01,29.86,13,2,14,0.40
2012-2-11,46.9,43.2,40.0,42.5,40.0,36.5,95,89,78,30.12,30.01,10,0,10,0.13
2012-2-12,46.9,41.6,38.4,39.4,37.4,36.1,94,85,68,30.08,29.84,7,0,7,0.04
2012-2-13,44.2,39.4,35.9,40.1,37.0,34.6,96,91,83,30.02,29.87,8,0,8,0.13
2012-2-14,43.4,37.3,31.5,37.3,34.0,29.8,95,88,70,30.17,29.87,15,1,16,0.06
2012-2-15,45.9,38.4,30.2,36.0,32.7,27.8,93,80,64,30.35,30.16,8,1,8,0.00
2012-2-16,44.7,40.6,35.3,42.9,37.9,32.6,96,90,76,30.25,30.14,7,0,7,0.10
2012-2-17,53.8,43.9,39.2,44.5,39.4,35.3,96,85,63,30.22,29.80,26,2,26,0.65
2012-2-18,41.1,39.3,37.2,37.1,35.2,32.9,90,85,74,30.04,29.91,24,6,27,0.20
2012-2-19,43.4,38.7,34.8,34.5,30.4,26.4,85,73,53,30.07,29.86,17,2,17,0.00
2012-2-20,44.7,40.0,33.8,41.9,35.5,27.0,94,84,66,29.99,29.81,11,2,11,0.35
2012-2-21,48.6,46.3,43.6,46.1,44.4,41.7,95,93,90,30.07,29.97,25,5,25,0.87
2012-2-22,47.1,44.2,39.4,45.2,38.9,32.8,95,82,63,30.28,29.91,28,8,30,0.25
2012-2-23,45.9,40.6,38.1,35.7,33.4,31.8,83,75,59,30.36,30.24,16,2,16,0.00
2012-2-24,47.4,42.0,37.4,43.2,37.5,33.0,93,84,66,30.24,29.56,15,2,15,0.35
2012-2-25,41.4,37.3,35.0,37.0,32.0,29.1,92,81,69,30.17,29.56,27,7,28,0.04
2012-2-26,38.8,33.4,24.4,32.1,29.0,23.1,96,84,67,30.18,30.07,18,2,18,0.03
2012-2-27,44.2,31.3,20.2,29.9,24.0,18.6,96,77,39,30.16,29.93,9,1,9,0.16
2012-2-28,44.2,37.8,32.1,30.7,23.7,18.3,81,57,38,29.93,29.40,32,5,32,0.03
2012-2-29,41.7,35.4,30.3,33.9,30.4,25.2,94,83,59,29.76,29.48,26,3,30,0.10
2012-3-1,42.0,36.1,31.8,34.8,32.5,30.3,95,87,70,30.31,29.76,13,1,13,0.11
2012-3-2,44.8,40.5,37.1,40.9,36.0,32.3,95,84,69,30.37,30.30,12,1,12,0.22
2012-3-3,51.0,46.9,43.3,43.7,42.3,40.9,95,84,73,30.34,30.28,19,3,19,0.02
2012-3-4,54.7,45.7,37.8,41.6,39.5,36.2,95,79,57,30.31,29.93,11,1,11,0.00
2012-3-5,43.8,40.2,33.5,40.4,34.1,24.4,93,79,51,29.93,29.67,25,4,26,0.22
2012-3-6,40.4,34.1,29.9,30.8,27.8,25.4,92,78,57,30.31,29.85,12,1,14,0.02
2012-3-7,47.2,37.0,28.6,29.9,24.9,19.3,90,64,35,30.43,30.30,10,1,10,0.00
2012-3-8,65.0,44.0,26.2,43.1,33.4,24.4,94,70,41,30.32,30.12,13,1,13,0.00
2012-3-9,52.8,43.8,33.0,41.4,37.6,30.1,96,79,59,30.20,29.90,8,1,9,0.00
2012-3-10,47.6,43.6,41.4,42.1,40.5,38.4,95,89,71,29.92,29.57,14,1,14,0.32
2012-3-11,43.6,37.2,32.2,40.6,34.4,28.1,94,90,77,29.75,29.54,18,2,18,0.35
2012-3-12,49.5,40.6,31.7,39.9,33.0,27.9,95,75,56,29.64,29.26,24,3,24,0.44
2012-3-13,39.4,33.7,31.3,34.7,30.8,28.2,96,89,77,29.84,29.32,16,1,16,0.70
2012-3-14,48.1,38.7,32.8,39.1,32.6,24.7,90,79,63,29.83,29.64,23,4,23,0.23
2012-3-15,53.5,45.7,41.1,45.7,40.6,36.6,93,82,66,29.64,29.44,23,3,23,0.68
2012-3-16,50.1,42.9,37.5,38.7,35.5,28.9,94,76,49,29.66,29.26,24,2,24,0.22
2012-3-17,46.9,38.6,32.0,40.1,34.5,29.5,95,86,52,29.61,29.25,19,2,20,0.45
2012-3-18,40.4,35.1,31.5,36.2,32.5,28.3,94,90,82,29.81,29.56,12,1,12,0.23
2012-3-19,46.6,37.4,27.2,33.9,29.2,23.4,94,74,48,29.86,29.59,14,2,15,0.02
2012-3-20,47.4,39.3,34.5,39.8,35.0,32.1,92,85,68,29.94,29.49,26,5,28,0.42
2012-3-21,45.1,37.9,32.1,34.0,30.6,24.1,95,76,46,29.97,29.75,19,1,19,0.09
2012-3-22,49.7,39.0,31.6,36.4,32.0,28.9,95,78,50,30.00,29.74,7,0,7,0.29
2012-3-23,54.9,41.8,30.5,32.9,29.7,26.5,94,65,36,29.98,29.91,19,1,20,0.00
2012-3-24,63.4,50.8,41.8,37.6,30.8,25.8,70,47,31,29.95,29.80,26,6,26,0.00
2012-3-25,55.2,44.7,30.9,44.8,37.3,28.8,93,76,52,29.82,29.64,11,1,11,0.00
2012-3-26,52.9,45.0,40.4,43.0,38.2,32.8,93,78,51,29.77,29.67,12,2,13,0.09
2012-3-27,56.4,50.7,42.1,39.5,36.6,32.2,82,59,48,29.70,29.42,26,7,26,0.02
2012-3-28,53.6,48.7,42.7,40.3,34.8,31.3,78,59,44,29.75,29.47,25,4,25,0.00
2012-3-29,51.1,46.4,42.0,45.1,40.6,33.1,95,82,52,29.62,29.36,24,2,26,0.86
2012-3-30,49.3,43.9,38.5,45.0,39.8,34.6,96,86,63,29.71,29.41,29,2,29,0.46
2012-3-31,49.9,41.7,36.5,42.6,37.9,33.7,95,86,70,29.64,29.29,22,1,22,0.26
2012-4-1,46.7,41.7,37.3,40.1,36.2,32.2,90,81,66,30.16,29.45,25,4,25,0.09
2012-4-2,63.5,50.1,38.7,36.4,33.4,29.3,83,56,31,30.19,29.81,20,3,20,0.00
2012-4-3,53.9,46.3,36.6,40.6,34.8,29.3,93,67,41,29.94,29.67,22,2,22,0.34
2012-4-4,51.5,41.3,35.4,37.8,34.6,27.4,95,79,43,30.05,29.89,12,1,12,0.00
2012-4-5,49.2,39.9,35.2,37.9,35.3,32.3,94,84,55,30.12,30.04,13,1,13,0.13
2012-4-6,52.1,41.1,34.0,35.9,32.4,25.9,92,73,39,30.25,30.11,9,1,9,0.00
2012-4-7,59.5,46.7,30.6,34.0,28.4,25.0,89,54,28,30.24,30.08,26,5,26,0.00
2012-4-8,67.3,57.9,50.8,27.6,23.5,18.6,38,27,20,30.10,29.90,35,12,35,0.00
2012-4-9,68.3,57.6,45.9,40.8,33.4,24.6,63,41,28,29.92,29.75,22,3,22,0.00
2012-4-10,66.6,53.5,42.0,48.0,41.4,36.6,85,66,40,29.76,29.64,12,1,12,0.01
2012-4-11,51.5,47.6,45.3,46.2,44.1,42.1,94,88,78,29.74,29.60,10,1,12,0.21
2012-4-12,56.7,46.4,38.4,46.4,40.8,36.2,96,82,51,29.76,29.62,19,1,19,0.17
2012-4-13,60.0,46.1,31.5,42.0,37.1,30.0,96,73,37,29.86,29.73,13,1,13,0.00
2012-4-14,60.4,49.6,39.6,42.6,38.1,32.2,81,65,48,30.11,29.86,14,3,14,0.00
2012-4-15,61.0,50.7,39.3,41.4,37.9,35.1,90,63,42,30.14,29.94,10,1,12,0.00
2012-4-16,54.4,48.2,41.5,49.3,43.3,37.3,93,84,59,30.16,29.82,21,2,21,0.67
2012-4-17,50.7,43.7,38.0,40.6,36.8,31.8,92,78,49,30.17,29.93,7,1,7,0.07
2012-4-18,57.6,47.7,42.3,42.4,39.8,34.0,92,75,46,30.04,29.89,14,2,15,0.14
2012-4-19,57.6,48.2,40.2,49.0,42.5,36.5,96,82,51,30.04,29.93,13,2,13,0.85
2012-4-20,51.4,47.7,43.7,50.2,43.9,41.2,96,87,70,30.19,29.98,17,1,18,0.98
2012-4-21,68.5,53.7,36.6,50.2,45.0,35.3,96,75,48,30.13,29.92,12,1,13,0.00
2012-4-22,75.8,60.2,45.1,53.9,48.3,43.1,93,68,37,29.94,29.79,8,1,8,0.00
2012-4-23,74.3,60.7,47.7,54.9,50.2,45.1,92,70,47,29.84,29.72,9,1,10,0.00
2012-4-24,54.4,52.5,50.7,50.4,48.9,46.2,92,87,81,29.87,29.75,7,0,8,0.01
2012-4-25,66.5,55.4,48.0,54.0,49.8,45.8,95,82,57,29.76,29.53,15,1,15,0.43
2012-4-26,51.6,45.8,40.1,46.7,42.4,37.0,96,88,64,30.00,29.53,18,2,18,0.62
2012-4-27,58.1,47.1,40.2,43.3,38.3,31.3,93,74,39,30.25,30.00,14,2,14,0.07
2012-4-28,63.4,53.0,43.4,48.5,43.5,39.9,92,72,49,30.24,30.13,11,1,11,0.00
2012-4-29,58.9,52.7,48.5,50.2,48.3,47.1,96,85,69,30.14,29.73,6,1,6,0.29
2012-4-30,51.6,47.0,41.9,48.2,44.1,39.1,96,90,79,29.89,29.61,22,3,22,1.03
2012-5-1,50.1,42.8,39.0,42.3,38.6,36.5,94,85,65,29.95,29.88,15,2,15,0.55
2012-5-2,55.8,46.2,38.9,41.2,37.5,35.0,93,73,47,29.95,29.71,11,1,11,0.02
2012-5-3,51.1,46.1,42.1,48.8,43.6,39.8,95,91,81,29.92,29.52,16,1,16,1.04
2012-5-4,53.2,45.6,40.5,44.4,39.1,34.5,90,79,58,30.33,29.92,14,2,15,0.12
2012-5-5,52.6,46.2,41.1,43.8,39.0,35.4,86,76,63,30.46,30.33,11,2,13,0.06
2012-5-6,64.0,51.7,37.7,44.9,40.9,34.7,89,69,45,30.45,30.30,11,1,11,0.00
2012-5-7,75.0,58.8,41.5,50.4,44.3,38.3,89,62,29,30.32,30.03,12,1,12,0.00
2012-5-8,67.3,58.2,48.3,48.4,45.3,40.0,85,63,41,30.09,30.00,12,2,13,0.00
2012-5-9,58.1,46.5,38.0,41.0,34.9,30.7,85,65,39,30.29,30.07,14,2,14,0.01
2012-5-10,57.1,45.0,31.9,36.8,31.1,24.5,94,62,32,30.38,30.26,14,1,14,0.00
2012-5-11,65.8,50.4,31.8,40.5,34.0,28.4,88,57,31,30.28,30.11,12,1,12,0.00
2012-5-12,77.2,59.1,38.8,47.3,40.7,34.8,88,55,26,30.16,30.05,11,1,11,0.00
2012-5-13,80.2,65.5,46.9,50.8,43.8,36.3,76,47,29,30.11,29.96,10,1,10,0.00
2012-5-14,81.5,66.4,49.5,53.0,48.8,43.6,84,56,33,29.98,29.90,9,1,9,0.00
2012-5-15,74.6,61.2,45.1,53.3,47.4,40.8,94,63,35,30.03,29.94,14,1,14,0.00
2012-5-16,68.3,57.1,45.8,47.6,43.1,33.7,87,62,43,30.03,29.95,12,1,15,0.00
2012-5-17,64.5,51.3,38.9,47.2,39.3,32.6,91,66,40,30.02,29.91,14,1,14,0.04
2012-5-18,60.7,49.7,40.6,40.6,37.8,32.3,88,65,37,30.12,30.01,11,1,11,0.00
2012-5-19,68.0,54.8,40.5,43.9,38.5,33.3,82,57,31,30.06,29.97,9,1,10,0.00
2012-5-20,59.8,55.4,51.5,56.5,48.6,39.3,95,79,57,29.97,29.86,10,1,10,0.18
2012-5-21,62.2,55.4,50.2,57.6,53.0,48.2,96,92,75,29.87,29.73,14,1,14,0.00
2012-5-22,54.4,49.9,45.9,48.4,45.4,41.6,94,85,68,29.90,29.82,14,2,16,0.00
2012-5-23,53.1,47.9,44.7,48.8,45.1,42.7,94,90,76,29.97,29.88,16,3,16,0.41
2012-5-24,62.1,51.0,44.1,48.1,44.1,40.6,94,78,50,29.95,29.72,11,1,11,0.00
2012-5-25,68.0,53.5,40.2,51.2,46.2,39.1,97,78,49,29.84,29.78,17,1,17,0.05
2012-5-26,73.0,60.2,46.4,51.6,45.7,40.6,86,62,33,29.92,29.79,13,2,13,0.00
2012-5-27,64.1,55.7,50.8,47.8,46.3,44.5,85,71,54,30.00,29.91,10,1,10,0.00
2012-5-28,56.4,52.0,48.3,49.3,47.2,43.4,93,84,70,30.07,29.98,12,0,12,0.11
2012-5-29,61.4,53.0,44.7,43.9,41.9,39.3,92,68,47,30.11,30.07,12,1,12,0.00
2012-5-30,68.8,56.9,47.4,52.0,45.8,41.8,87,67,47,30.19,30.07,9,1,9,0.00
2012-5-31,66.8,58.9,52.7,59.4,54.7,50.9,95,86,72,30.08,29.94,10,0,13,0.38
2012-6-1,69.1,60.7,55.2,62.7,57.4,53.1,95,89,79,29.94,29.82,13,1,14,0.43
2012-6-2,65.0,55.2,50.2,53.4,50.3,41.6,96,84,53,29.92,29.78,14,1,14,0.13
2012-6-3,59.8,52.4,46.6,45.1,42.1,38.6,83,69,51,29.94,29.81,8,0,8,0.00
2012-6-4,52.4,49.0,46.3,48.7,46.3,43.3,95,91,83,29.82,29.67,7,0,7,0.18
2012-6-5,58.6,49.9,44.0,47.4,42.8,35.6,96,78,53,30.16,29.75,18,3,18,0.65
2012-6-6,60.1,51.6,44.1,43.3,40.0,35.4,90,66,43,30.16,29.93,13,2,13,0.04
2012-6-7,62.1,51.0,46.5,52.0,46.0,39.7,93,83,67,29.93,29.75,17,2,17,0.50
2012-6-8,58.9,49.8,44.9,48.2,44.2,40.5,95,82,53,29.99,29.88,19,1,19,0.20
2012-6-9,57.9,51.0,45.4,46.5,44.3,42.5,94,79,61,30.20,29.99,17,3,17,0.00
2012-6-10,65.3,55.2,47.6,48.6,44.4,41.3,83,68,50,30.21,30.14,10,1,10,0.00
2012-6-11,74.3,61.7,48.1,52.7,46.5,41.1,85,59,36,30.14,30.00,10,1,10,0.00
2012-6-12,62.6,57.3,53.5,57.0,51.9,44.9,93,82,68,30.00,29.94,14,1,14,0.10
2012-6-13,61.6,55.2,49.7,52.1,45.5,42.0,90,71,49,30.12,29.99,12,2,17,0.00
2012-6-14,62.4,53.6,46.9,48.1,45.3,43.3,91,74,53,30.09,30.05,10,1,10,0.00
2012-6-15,72.3,59.7,43.9,53.0,46.7,40.5,91,64,39,30.12,30.07,9,1,9,0.00
2012-6-16,76.8,65.1,58.7,63.0,56.4,49.6,94,74,55,30.09,29.88,15,2,16,0.05
2012-6-17,64.4,59.1,51.8,60.0,53.4,46.6,95,82,62,29.89,29.83,18,3,18,0.10
2012-6-18,58.7,51.7,49.0,53.1,47.9,45.0,94,87,76,30.00,29.79,13,2,14,0.67
2012-6-19,65.5,54.6,47.4,50.9,47.7,44.8,93,78,54,30.11,29.99,9,1,9,0.09
2012-6-20,74.8,60.9,44.7,55.1,49.6,42.6,94,69,43,30.10,29.84,10,1,10,0.00
2012-6-21,76.3,62.9,50.2,57.4,52.5,48.1,94,71,50,29.87,29.68,8,1,8,0.00
2012-6-22,56.2,53.1,51.2,52.4,50.4,47.6,96,91,80,29.75,29.64,5,0,5,0.72
2012-6-23,61.4,53.8,48.5,53.8,49.6,45.6,96,86,58,29.88,29.65,23,1,23,0.59
2012-6-24,65.8,54.2,42.5,50.6,47.0,41.1,97,79,52,30.01,29.85,13,1,14,0.00
2012-6-25,65.5,54.7,43.4,51.4,47.5,41.7,95,78,51,29.97,29.87,8,1,10,0.02
2012-6-26,59.6,53.8,48.6,53.0,48.7,44.8,95,84,59,30.02,29.87,13,1,14,0.21
2012-6-27,71.7,59.2,44.7,51.3,47.0,41.4,97,68,39,30.01,29.84,10,1,11,0.00
2012-6-28,77.3,63.6,55.0,55.3,51.8,48.1,82,66,41,29.96,29.83,11,1,11,0.00
2012-6-29,70.2,62.6,57.7,58.9,56.0,52.6,91,79,65,30.01,29.94,7,0,8,0.00
2012-6-30,68.2,61.8,58.1,61.5,59.0,56.3,96,91,77,29.96,29.86,7,0,7,0.46
2012-7-1,62.3,57.9,53.5,57.4,52.0,49.5,93,81,68,30.01,29.90,6,1,6,0.00
2012-7-2,64.9,57.5,52.1,53.8,50.7,48.8,93,78,63,29.97,29.82,7,0,8,0.11
2012-7-3,63.0,54.9,49.9,53.5,49.4,45.3,95,83,58,30.09,29.78,19,2,19,0.54
2012-7-4,69.5,58.1,45.5,50.7,47.2,42.8,96,70,44,30.08,29.89,11,1,11,0.00
2012-7-5,75.3,62.3,48.0,53.8,48.4,42.1,91,64,34,29.97,29.91,9,1,10,0.00
2012-7-6,78.8,65.7,51.6,57.0,51.9,47.1,86,63,39,30.05,29.95,9,1,9,0.00
2012-7-7,80.5,66.3,50.6,60.4,55.1,48.6,94,70,46,30.08,29.95,9,1,10,0.00
2012-7-8,84.0,69.9,54.1,63.3,57.9,52.4,95,68,45,30.00,29.88,8,1,8,0.00
2012-7-9,66.7,59.7,56.3,60.4,55.7,53.1,93,87,76,30.02,29.95,4,0,4,0.00
2012-12-19,50.1,44.1,37.4,46.1,33.2,29.1,90,66,47,30.30,29.72,11,3,20,0.02
2012-12-20,58.4,48.1,35.4,29.9,20.8,14.0,77,36,23,30.30,30.09,11,7,28,0.00
2012-12-21,67.0,55.6,46.8,21.3,15.8,11.2,28,21,14,30.09,29.97,10,6,23,0.00
2012-12-22,67.9,55.8,45.0,37.5,30.4,21.5,73,40,24,30.05,29.96,4,1,8,0.00
2012-12-23,65.1,49.9,39.7,38.5,35.2,33.1,77,59,31,30.10,29.96,3,1,7,0.00
2012-12-24,60.4,50.3,42.0,41.2,37.7,33.9,79,63,43,30.00,29.82,7,2,13,0.00
2012-12-25,52.8,46.3,37.5,41.3,33.5,24.3,91,64,35,30.08,29.93,5,2,9,0.00